^^
Saratoga-Weather Station Historical Data
Daily Summary for April 13, 2021 Units:  English    Metric   Both
Daily Weekly Monthly Yearly Custom
  High: Low: Average:
Temperature: 41.7 °F 33.8 °F 36.9 °F
Dew Point: 40.6 °F 31.5 °F 34.7 °F
Humidity: 96% 87% 92%
Wind Speed: 8.9mph 0mph 2.2mph
Wind Gust: 11mph - -
Wind- - West
Pressure: 30.1 in 30 in -
Precipitation: 0.17 in    
Historical Graphs
 
 
Tabular Data for April 13, 2021
Time Temperature Dew Point Pressure Wind Wind Speed Wind Gust Humidity Rainfall Rate (Hourly) solar
00:01 36 °F 32.5 °F 30.1 in WNW 4 mph 7 mph 87% 0 in 0 W/m2
00:06 36 °F 32.5 °F 30.1 in NNW 0.9 mph 6 mph 87% 0 in 0 W/m2
00:11 36 °F 32.5 °F 30.1 in WNW 2.9 mph 4 mph 87% 0 in 0 W/m2
00:16 35.8 °F 32.5 °F 30.1 in WNW 2.9 mph 4 mph 88% 0 in 0 W/m2
00:21 35.6 °F 32.4 °F 30.1 in WNW 2.9 mph 9 mph 88% 0 in 0 W/m2
00:27 35.4 °F 32.2 °F 30.1 in NW 0.9 mph 6 mph 88% 0 in 0 W/m2
00:32 35.1 °F 32.2 °F 30.1 in WNW 2.9 mph 8 mph 89% 0 in 0 W/m2
00:37 34.9 °F 32 °F 30.1 in West 0.9 mph 4 mph 89% 0 in 0 W/m2
00:42 34.9 °F 32.2 °F 30.1 in NW 4 mph 8 mph 90% 0 in 0 W/m2
00:47 35.1 °F 32.4 °F 30.1 in West 6 mph 9 mph 90% 0 in 0 W/m2
00:52 35.2 °F 32.5 °F 30.1 in WNW 2.9 mph 6 mph 90% 0 in 0 W/m2
00:57 35.2 °F 32.4 °F 30.1 in West 2.9 mph 9 mph 89% 0 in 0 W/m2
01:02 35.2 °F 32.4 °F 30.1 in WNW 4 mph 5 mph 89% 0 in 0 W/m2
01:07 35.2 °F 32.4 °F 30.1 in WNW 2.9 mph 5 mph 89% 0 in 0 W/m2
01:12 35.1 °F 32.2 °F 30.1 in West 2 mph 6 mph 89% 0 in 0 W/m2
01:17 35.1 °F 32.2 °F 30.1 in WNW 2 mph 8 mph 89% 0 in 0 W/m2
01:22 34.9 °F 32 °F 30.1 in WNW 4.9 mph 8 mph 89% 0 in 0 W/m2
01:27 34.9 °F 32 °F 30.1 in NW 2 mph 6 mph 89% 0 in 0 W/m2
01:32 34.9 °F 32 °F 30.1 in West 4 mph 8 mph 89% 0 in 0 W/m2
01:37 35.1 °F 32.2 °F 30.1 in WNW 2.9 mph 9 mph 89% 0 in 0 W/m2
01:42 35.1 °F 32.2 °F 30.1 in WNW 8.1 mph 8 mph 89% 0 in 0 W/m2
01:47 35.1 °F 32.2 °F 30.1 in WNW 2.9 mph 11 mph 89% 0 in 0 W/m2
01:52 34.9 °F 32 °F 30.1 in NW 2.9 mph 8 mph 89% 0 in 0 W/m2
01:57 34.9 °F 32 °F 30.1 in West 4 mph 8 mph 89% 0 in 0 W/m2
02:02 34.7 °F 31.8 °F 30.1 in WSW 6.9 mph 7 mph 89% 0 in 0 W/m2
02:07 34.5 °F 31.8 °F 30.1 in West 2.9 mph 6 mph 90% 0 in 0 W/m2
02:12 34.3 °F 31.6 °F 30.1 in West 4 mph 4 mph 90% 0 in 0 W/m2
02:22 34.2 °F 31.5 °F 30.1 in West 2 mph 3 mph 90% 0 in 0 W/m2
02:27 34 °F 31.6 °F 30.1 in West 2.9 mph 6 mph 91% 0 in 0 W/m2
02:32 34 °F 31.6 °F 30.1 in WNW 4 mph 8 mph 91% 0 in 0 W/m2
02:37 34.2 °F 31.8 °F 30.1 in NW 2.9 mph 4 mph 91% 0 in 0 W/m2
02:42 34.2 °F 31.8 °F 30.1 in WNW 2.9 mph 6 mph 91% 0 in 0 W/m2
02:47 34.3 °F 32 °F 30.1 in West 2.9 mph 8 mph 91% 0 in 0 W/m2
02:52 34.3 °F 32 °F 30.1 in West 4 mph 8 mph 91% 0 in 0 W/m2
02:57 34.3 °F 32 °F 30.1 in West 2.9 mph 7 mph 91% 0 in 0 W/m2
03:02 34.5 °F 32.2 °F 30.1 in West 2.9 mph 6 mph 91% 0 in 0 W/m2
03:07 34.3 °F 32 °F 30.1 in West 2.9 mph 5 mph 91% 0 in 0 W/m2
03:12 34.3 °F 32 °F 30.1 in WNW 2.9 mph 7 mph 91% 0 in 0 W/m2
03:17 34.2 °F 31.8 °F 30.1 in WNW 2.9 mph 6 mph 91% 0 in 0 W/m2
03:22 34.2 °F 31.8 °F 30.1 in WNW 0.9 mph 7 mph 91% 0 in 0 W/m2
03:27 34.2 °F 31.8 °F 30.1 in West 2 mph 2 mph 91% 0 in 0 W/m2
03:32 34 °F 31.6 °F 30.1 in NW 0.9 mph 2 mph 91% 0 in 0 W/m2
03:37 33.8 °F 31.5 °F 30.1 in NW 2 mph 3 mph 91% 0 in 0 W/m2
03:42 33.8 °F 31.5 °F 30.1 in North 4 mph 4 mph 91% 0 in 0 W/m2
03:47 34 °F 31.6 °F 30.1 in NW 2.9 mph 4 mph 91% 0 in 0 W/m2
03:52 34 °F 31.6 °F 30.1 in WNW 0.9 mph 6 mph 91% 0 in 0 W/m2
03:57 34 °F 31.6 °F 30.1 in West 0.9 mph 3 mph 91% 0 in 0 W/m2
04:02 33.8 °F 31.5 °F 30.1 in WSW 0.9 mph 3 mph 91% 0 in 0 W/m2
04:07 34 °F 31.8 °F 30.1 in Calm   3 mph 92% 0 in 0 W/m2
04:12 34 °F 31.8 °F 30.1 in WNW 2 mph 6 mph 92% 0 in 0 W/m2
04:17 34 °F 31.6 °F 30.1 in WNW 2.9 mph 6 mph 91% 0 in 0 W/m2
04:22 33.8 °F 31.5 °F 30.1 in West 2 mph 3 mph 91% 0 in 0 W/m2
04:27 33.8 °F 31.6 °F 30.1 in West 2.9 mph 6 mph 92% 0 in 0 W/m2
04:32 34 °F 31.8 °F 30.1 in NW 4.9 mph 7 mph 92% 0 in 0 W/m2
04:37 34 °F 31.6 °F 30.1 in WNW 2 mph 4 mph 91% 0 in 0 W/m2
04:42 34.2 °F 31.8 °F 30.1 in WNW 2 mph 4 mph 91% 0 in 0 W/m2
04:47 34.2 °F 31.8 °F 30.1 in West 2.9 mph 6 mph 91% 0 in 0 W/m2
04:52 34.2 °F 31.8 °F 30.1 in West 2 mph 4 mph 91% 0 in 0 W/m2
04:57 34.2 °F 31.8 °F 30.1 in WSW 2.9 mph 7 mph 91% 0 in 0 W/m2
05:02 34.2 °F 31.8 °F 30.1 in West 2 mph 7 mph 91% 0 in 0 W/m2
05:07 34.2 °F 31.8 °F 30.1 in WSW 4 mph 8 mph 91% 0 in 0 W/m2
05:12 34.3 °F 32 °F 30.1 in WNW 4 mph 7 mph 91% 0 in 0 W/m2
05:17 34.5 °F 32.2 °F 30.1 in WNW 8.1 mph 9 mph 91% 0 in 0 W/m2
05:22 34.9 °F 32.5 °F 30.1 in West 6.9 mph 7 mph 91% 0 in 0 W/m2
05:27 34.9 °F 32.5 °F 30.1 in West 2.9 mph 9 mph 91% 0 in 0 W/m2
05:32 35.1 °F 32.7 °F 30.1 in West 2.9 mph 6 mph 91% 0 in 0 W/m2
05:37 35.1 °F 32.7 °F 30.1 in West 2.9 mph 8 mph 91% 0 in 0 W/m2
05:42 35.2 °F 32.5 °F 30.1 in WNW 4 mph 7 mph 90% 0 in 0 W/m2
05:47 35.2 °F 32.5 °F 30.1 in WNW 2 mph 7 mph 90% 0 in 0 W/m2
05:52 35.2 °F 32.5 °F 30.1 in WNW 2.9 mph 7 mph 90% 0 in 0 W/m2
05:58 35.2 °F 32.5 °F 30.1 in West 2.9 mph 6 mph 90% 0 in 0 W/m2
06:03 35.2 °F 32.5 °F 30.1 in WNW 2 mph 7 mph 90% 0 in 0 W/m2
06:08 35.2 °F 32.5 °F 30.1 in West 4 mph 4 mph 90% 0 in 0 W/m2
06:13 35.2 °F 32.5 °F 30.1 in NW 0.9 mph 2 mph 90% 0 in 0 W/m2
06:18 35.2 °F 32.5 °F 30.1 in WNW 0.9 mph 3 mph 90% 0 in 0 W/m2
06:23 35.2 °F 32.9 °F 30.1 in WNW 2 mph 3 mph 91% 0 in 0 W/m2
06:28 35.1 °F 32.7 °F 30.1 in West 0.9 mph 3 mph 91% 0 in 0 W/m2
06:33 35.1 °F 32.7 °F 30.1 in West 6.9 mph 7 mph 91% 0 in 0 W/m2
06:38 35.2 °F 32.9 °F 30.1 in West 2.9 mph 4 mph 91% 0 in 0 W/m2
06:43 35.4 °F 32.7 °F 30.1 in West 2.9 mph 4 mph 90% 0 in 0 W/m2
06:48 35.4 °F 32.7 °F 30.1 in WNW 0.9 mph 4 mph 90% 0 in 0 W/m2
06:53 35.2 °F 32.5 °F 30.1 in NW 0.9 mph 3 mph 90% 0 in 0 W/m2
06:58 35.1 °F 32.4 °F 30.1 in NW 0.9 mph 4 mph 90% 0 in 0 W/m2
07:03 35.1 °F 32.7 °F 30.1 in Calm   1 mph 91% 0 in 0 W/m2
07:08 34.9 °F 32.5 °F 30.1 in Calm   2 mph 91% 0 in 0 W/m2
07:13 34.7 °F 32.4 °F 30.1 in West 2 mph 3 mph 91% 0 in 0 W/m2
07:18 34.5 °F 32.2 °F 30.1 in WNW 0.9 mph 3 mph 91% 0 in 0 W/m2
07:23 34.5 °F 32.4 °F 30.1 in WNW 2 mph 5 mph 92% 0 in 0 W/m2
07:28 34.7 °F 32.5 °F 30.1 in West 2 mph 6 mph 92% 0 in 0 W/m2
07:33 34.9 °F 32.5 °F 30.1 in WSW 2 mph 6 mph 91% 0 in 0 W/m2
07:38 34.9 °F 32.5 °F 30.1 in WNW 2 mph 4 mph 91% 0 in 0 W/m2
07:43 34.7 °F 32.4 °F 30.1 in WNW 0.9 mph 6 mph 91% 0 in 0 W/m2
07:48 34.7 °F 32.4 °F 30.1 in WSW 4 mph 8 mph 91% 0 in 0 W/m2
07:53 34.7 °F 32.4 °F 30.1 in West 2.9 mph 4 mph 91% 0 in 0 W/m2
07:58 34.5 °F 32.2 °F 30.1 in West 4 mph 5 mph 91% 0 in 0 W/m2
08:03 34.5 °F 32.2 °F 30.1 in WSW 0.9 mph 6 mph 91% 0 in 0 W/m2
08:08 34.5 °F 32.2 °F 30.1 in WNW 2 mph 9 mph 91% 0 in 0 W/m2
08:13 34.5 °F 32.2 °F 30.1 in WSW 2.9 mph 7 mph 91% 0 in 0 W/m2
08:18 34.5 °F 32.2 °F 30.1 in WNW 2.9 mph 9 mph 91% 0 in 0 W/m2
08:23 34.3 °F 32 °F 30.1 in WSW 6.9 mph 7 mph 91% 0 in 0 W/m2
08:28 34.3 °F 32 °F 30.1 in WNW 4 mph 9 mph 91% 0 in 0 W/m2
08:33 34.3 °F 32 °F 30.1 in West 2 mph 4 mph 91% 0 in 0 W/m2
08:38 34.3 °F 32 °F 30.1 in NW 4.9 mph 8 mph 91% 0 in 5 W/m2
08:43 34.3 °F 32 °F 30.1 in West 8.9 mph 9 mph 91% 0 in 7 W/m2
08:48 34.3 °F 32 °F 30.1 in WNW 4 mph 8 mph 91% 0 in 9 W/m2
08:53 34.3 °F 32 °F 30.1 in West 6 mph 8 mph 91% 0 in 12 W/m2
08:58 34.3 °F 32 °F 30.1 in West 2.9 mph 8 mph 91% 0 in 16 W/m2
09:03 34.3 °F 32 °F 30.1 in WSW 4.9 mph 9 mph 91% 0 in 19 W/m2
09:08 34.3 °F 31.6 °F 30.1 in West 4 mph 8 mph 90% 0 in 23 W/m2
09:13 34.3 °F 31.6 °F 30.1 in West 2 mph 6 mph 90% 0 in 26 W/m2
09:18 34.3 °F 32 °F 30.1 in WNW 2 mph 7 mph 91% 0 in 30 W/m2
09:23 34.2 °F 31.8 °F 30.1 in WNW 2.9 mph 5 mph 91% 0 in 33 W/m2
09:28 34.2 °F 31.8 °F 30.1 in West 8.9 mph 10 mph 91% 0 in 35 W/m2
09:33 34.2 °F 31.8 °F 30.1 in West 4 mph 7 mph 91% 0 in 39 W/m2
09:38 34.3 °F 32 °F 30.1 in SSW 4 mph 6 mph 91% 0 in 51 W/m2
09:43 34.3 °F 32 °F 30.1 in West 2.9 mph 4 mph 91% 0 in 53 W/m2
09:48 34.3 °F 31.6 °F 30.1 in WNW 2.9 mph 7 mph 90% 0 in 51 W/m2
09:53 34.3 °F 32 °F 30.1 in WSW 2 mph 7 mph 91% 0 in 67 W/m2
09:58 34.3 °F 32 °F 30.1 in West 2.9 mph 8 mph 91% 0 in 72 W/m2
10:03 34.3 °F 32 °F 30.1 in West 4 mph 7 mph 91% 0 in 67 W/m2
10:08 34.5 °F 31.8 °F 30.1 in SW 4.9 mph 6 mph 90% 0 in 72 W/m2
10:13 34.5 °F 31.8 °F 30.1 in West 4 mph 9 mph 90% 0 in 77 W/m2
10:18 34.5 °F 31.8 °F 30.1 in WSW 2 mph 7 mph 90% 0 in 88 W/m2
10:23 34.7 °F 32 °F 30.1 in West 6.9 mph 8 mph 90% 0 in 93 W/m2
10:28 34.9 °F 32.2 °F 30.1 in West 2 mph 6 mph 90% 0 in 95 W/m2
10:33 34.9 °F 32.2 °F 30.1 in West 2 mph 6 mph 90% 0 in 91 W/m2
10:38 34.9 °F 32.2 °F 30.1 in NW 4 mph 6 mph 90% 0 in 97 W/m2
10:43 35.1 °F 32.4 °F 30.1 in WNW 2.9 mph 4 mph 90% 0 in 97 W/m2
10:48 35.1 °F 32.4 °F 30.1 in West 4 mph 4 mph 90% 0 in 98 W/m2
10:53 35.1 °F 32.4 °F 30.1 in WNW 2.9 mph 7 mph 90% 0 in 111 W/m2
10:58 35.1 °F 32.4 °F 30.1 in West 2 mph 3 mph 90% 0 in 123 W/m2
11:03 35.2 °F 32.4 °F 30.1 in West 2.9 mph 6 mph 89% 0 in 128 W/m2
11:08 35.4 °F 32.5 °F 30.1 in Calm   3 mph 89% 0 in 125 W/m2
11:13 35.4 °F 32.5 °F 30.1 in West 2 mph 6 mph 89% 0 in 130 W/m2
11:18 35.6 °F 32.7 °F 30.1 in WNW 2.9 mph 4 mph 89% 0 in 141 W/m2
11:23 35.8 °F 32.9 °F 30.1 in NW 0.9 mph 3 mph 89% 0 in 137 W/m2
11:28 36 °F 33.1 °F 30.1 in SW 2 mph 3 mph 89% 0 in 146 W/m2
11:33 36 °F 33.1 °F 30.1 in WNW 2.9 mph 4 mph 89% 0 in 132 W/m2
11:38 36.1 °F 32.9 °F 30.1 in West 0.9 mph 4 mph 88% 0 in 139 W/m2
11:43 36.1 °F 32.9 °F 30.1 in WNW 2 mph 3 mph 88% 0 in 130 W/m2
11:48 36.1 °F 32.9 °F 30.1 in WNW 0.9 mph 2 mph 88% 0 in 139 W/m2
11:53 36.1 °F 32.9 °F 30.1 in West 0.9 mph 3 mph 88% 0 in 134 W/m2
11:58 36.1 °F 32.9 °F 30.1 in WNW 4 mph 6 mph 88% 0 in 127 W/m2
12:03 36.1 °F 32.9 °F 30.1 in WNW 2 mph 6 mph 88% 0 in 128 W/m2
12:08 36.1 °F 32.9 °F 30.1 in NNW 0.9 mph 4 mph 88% 0 in 116 W/m2
12:13 36.1 °F 32.9 °F 30.1 in ESE 0.9 mph 7 mph 88% 0 in 120 W/m2
12:18 36.1 °F 32.9 °F 30.1 in West 0.9 mph 5 mph 88% 0 in 120 W/m2
12:23 36.1 °F 32.9 °F 30.1 in NW 2.9 mph 3 mph 88% 0 in 130 W/m2
12:28 36.1 °F 32.9 °F 30.1 in ESE 0.9 mph 7 mph 88% 0 in 127 W/m2
12:33 36.1 °F 32.9 °F 30.1 in WSW 2 mph 8 mph 88% 0 in 120 W/m2
12:38 36.1 °F 32.9 °F 30.1 in NW 4 mph 8 mph 88% 0 in 118 W/m2
12:43 36.1 °F 32.9 °F 30.1 in Calm   3 mph 88% 0 in 125 W/m2
12:48 36.1 °F 33.3 °F 30.1 in WNW 0.9 mph 4 mph 89% 0 in 116 W/m2
12:53 36.3 °F 33.4 °F 30.1 in North 0.9 mph 4 mph 89% 0 in 111 W/m2
12:58 36.3 °F 33.4 °F 30.1 in North 4 mph 5 mph 89% 0 in 114 W/m2
13:03 36.3 °F 33.4 °F 30.1 in NW 0.9 mph 6 mph 89% 0 in 116 W/m2
13:08 36.3 °F 33.4 °F 30.1 in NNW 0.9 mph 4 mph 89% 0 in 107 W/m2
13:13 36.5 °F 33.6 °F 30.1 in Calm   4 mph 89% 0 in 111 W/m2
13:18 36.7 °F 33.8 °F 30.1 in West 0.9 mph 3 mph 89% 0 in 120 W/m2
13:23 36.7 °F 33.8 °F 30.1 in Calm   1 mph 89% 0 in 121 W/m2
13:28 36.9 °F 34 °F 30.1 in WNW 2.9 mph 3 mph 89% 0 in 102 W/m2
13:33 37 °F 33.8 °F 30.1 in Calm   2 mph 88% 0 in 88 W/m2
13:38 37 °F 34.2 °F 30.1 in Calm   1 mph 89% 0 in 74 W/m2
13:43 37.2 °F 34 °F 30.1 in WNW 2 mph 4 mph 88% 0 in 69 W/m2
13:48 37.2 °F 34 °F 30.1 in Calm   2 mph 88% 0 in 70 W/m2
13:53 37.2 °F 34 °F 30.1 in Calm   4 mph 88% 0 in 60 W/m2
13:58 37 °F 33.8 °F 30.1 in NW 0.9 mph 3 mph 88% 0 in 54 W/m2
14:03 37 °F 34.2 °F 30.1 in Calm     89% 0 in 49 W/m2
14:08 37 °F 33.8 °F 30.1 in WNW 0.9 mph 2 mph 88% 0 in 47 W/m2
14:13 37 °F 34.2 °F 30 in Calm   3 mph 89% 0 in 51 W/m2
14:18 37 °F 34.2 °F 30 in Calm   1 mph 89% 0 in 56 W/m2
14:23 37 °F 34.2 °F 30 in Calm   2 mph 89% 0 in 54 W/m2
14:28 37 °F 34.2 °F 30 in WSW 2.9 mph 4 mph 89% 0 in 53 W/m2
14:33 37.2 °F 34.3 °F 30 in Calm   2 mph 89% 0 in 49 W/m2
14:39 37.2 °F 34.3 °F 30 in Calm     89% 0 in 51 W/m2
14:44 37.2 °F 34.3 °F 30 in Calm     89% 0 in 37 W/m2
14:49 37.4 °F 34.5 °F 30 in Calm   1 mph 89% 0 in 37 W/m2
14:54 37.6 °F 34.7 °F 30 in Calm     89% 0 in 46 W/m2
14:59 37.6 °F 34.7 °F 30 in NE 0.9 mph 1 mph 89% 0 in 51 W/m2
15:04 37.8 °F 35.1 °F 30 in NE 2.9 mph 3 mph 90% 0 in 42 W/m2
15:09 37.9 °F 35.2 °F 30 in NE 0.9 mph 5 mph 90% 0 in 37 W/m2
15:19 38.1 °F 35.4 °F 30 in Calm   5 mph 90% 0 in 39 W/m2
15:24 38.1 °F 35.4 °F 30 in Calm   2 mph 90% 0 in 40 W/m2
15:29 38.3 °F 35.6 °F 30 in NW 2.9 mph 6 mph 90% 0 in 42 W/m2
15:34 38.3 °F 36 °F 30 in SW 2 mph 5 mph 91% 0 in 44 W/m2
15:39 38.5 °F 36.1 °F 30 in NW 0.9 mph 3 mph 91% 0 in 37 W/m2
15:44 38.5 °F 36.1 °F 30 in Calm   5 mph 91% 0 in 28 W/m2
15:49 38.5 °F 36.1 °F 30 in NW 0.9 mph 2 mph 91% 0 in 26 W/m2
15:54 38.5 °F 36.3 °F 30 in WNW 2.9 mph 5 mph 92% 0 in 21 W/m2
15:59 38.5 °F 36.3 °F 30 in WNW 0.9 mph 3 mph 92% 0 in 16 W/m2
16:04 38.5 °F 36.3 °F 30 in NW 0.9 mph 4 mph 92% 0 in 16 W/m2
16:09 38.5 °F 36.7 °F 30 in NNW 2.9 mph 4 mph 93% 0 in 16 W/m2
16:14 38.5 °F 36.7 °F 30 in West 0.9 mph 2 mph 93% 0 in 12 W/m2
16:19 38.7 °F 36.9 °F 30 in NW 0.9 mph 2 mph 93% 0.01 in 11 W/m2
16:24 38.5 °F 36.9 °F 30 in NW 0.9 mph 2 mph 94% 0.01 in 9 W/m2
16:29 38.5 °F 36.9 °F 30 in South 0.9 mph 1 mph 94% 0.02 in 9 W/m2
16:34 38.5 °F 36.9 °F 30 in Calm   3 mph 94% 0.02 in 5 W/m2
16:39 38.5 °F 36.9 °F 30 in Calm   1 mph 94% 0.02 in 5 W/m2
16:44 38.7 °F 37 °F 30 in SW 0.9 mph 2 mph 94% 0.03 in 5 W/m2
16:49 38.7 °F 37 °F 30 in NW 0.9 mph 2 mph 94% 0.03 in 5 W/m2
16:54 38.7 °F 37 °F 30 in ENE 0.9 mph 1 mph 94% 0.03 in 9 W/m2
16:59 38.7 °F 37 °F 30 in North 0.9 mph 2 mph 94% 0.04 in 0 W/m2
17:04 38.7 °F 37 °F 30 in Calm   3 mph 94% 0.04 in 0 W/m2
17:09 38.7 °F 37.4 °F 30 in Calm   1 mph 95% 0.04 in 0 W/m2
17:14 38.7 °F 37.4 °F 30 in Calm   3 mph 95% 0.04 in 0 W/m2
17:19 38.7 °F 37.4 °F 30 in SE 2.9 mph 3 mph 95% 0.03 in 0 W/m2
17:24 38.7 °F 37.4 °F 30 in Calm     95% 0.04 in 0 W/m2
17:29 38.7 °F 37.4 °F 30 in Calm     95% 0.03 in 0 W/m2
17:34 38.7 °F 37.4 °F 30 in Calm     95% 0.02 in 0 W/m2
17:39 38.7 °F 37.4 °F 30 in Calm     95% 0.02 in 0 W/m2
17:44 38.7 °F 37.4 °F 30 in Calm   2 mph 95% 0.02 in 0 W/m2
17:49 38.7 °F 37.4 °F 30 in Calm     95% 0.02 in 0 W/m2
17:54 38.7 °F 37.4 °F 30 in Calm     95% 0.03 in 0 W/m2
17:59 38.7 °F 37.4 °F 30 in North 0.9 mph 1 mph 95% 0.02 in 0 W/m2
18:04 38.7 °F 37.4 °F 30 in Calm     95% 0.02 in 0 W/m2
18:09 38.7 °F 37.4 °F 30 in Calm   1 mph 95% 0.02 in 0 W/m2
18:14 38.7 °F 37.4 °F 30 in Calm   1 mph 95% 0.02 in 0 W/m2
18:19 38.7 °F 37.4 °F 30 in Calm     95% 0.03 in 0 W/m2
18:24 38.7 °F 37.4 °F 30 in Calm   1 mph 95% 0.02 in 0 W/m2
18:29 38.7 °F 37.4 °F 30 in Calm   1 mph 95% 0.02 in 0 W/m2
18:34 38.8 °F 37.8 °F 30 in NNW 0.9 mph 3 mph 96% 0.02 in 0 W/m2
18:39 38.8 °F 37.8 °F 30 in NNW 0.9 mph 2 mph 96% 0.02 in 0 W/m2
18:44 39 °F 37.9 °F 30 in WNW 2 mph 3 mph 96% 0.02 in 0 W/m2
18:49 39 °F 37.9 °F 30 in Calm   3 mph 96% 0.02 in 0 W/m2
18:54 39.2 °F 38.1 °F 30 in West 0.9 mph 2 mph 96% 0.01 in 0 W/m2
18:59 39.4 °F 38.3 °F 30 in WNW 2 mph 3 mph 96% 0.01 in 0 W/m2
19:04 39.6 °F 38.5 °F 30 in WNW 2 mph 2 mph 96% 0.01 in 0 W/m2
19:09 39.7 °F 38.7 °F 30 in West 2 mph 4 mph 96% 0.02 in 0 W/m2
19:14 39.9 °F 38.8 °F 30 in West 4 mph 10 mph 96% 0.02 in 0 W/m2
19:19 40.1 °F 39 °F 30 in West 4 mph 9 mph 96% 0.01 in 0 W/m2
19:24 40.5 °F 39.4 °F 30 in WSW 4.9 mph 8 mph 96% 0.01 in 0 W/m2
19:29 40.5 °F 39.4 °F 30 in NW 2 mph 9 mph 96% 0.01 in 0 W/m2
19:34 40.6 °F 39.6 °F 30 in WNW 2.9 mph 11 mph 96% 0.01 in 0 W/m2
19:39 40.6 °F 39.6 °F 30 in WNW 2 mph 4 mph 96% 0.01 in 0 W/m2
19:44 40.6 °F 39.6 °F 30 in WNW 0.9 mph 7 mph 96% 0.01 in 0 W/m2
19:49 40.6 °F 39.6 °F 30 in NW 2 mph 3 mph 96% 0.01 in 0 W/m2
19:59 40.8 °F 39.7 °F 30 in WNW 2 mph 3 mph 96% 0.02 in 0 W/m2
20:04 41 °F 39.9 °F 30 in WNW 4 mph 9 mph 96% 0.02 in 0 W/m2
20:09 41.2 °F 40.1 °F 30 in West 2.9 mph 4 mph 96% 0.01 in 0 W/m2
20:14 41.2 °F 40.1 °F 30 in West 2.9 mph 6 mph 96% 0.01 in 0 W/m2
20:24 41.2 °F 40.1 °F 30 in West 4 mph 4 mph 96% 0.02 in 0 W/m2
20:29 41.2 °F 40.1 °F 30 in West 0.9 mph 6 mph 96% 0.02 in 0 W/m2
20:34 41.2 °F 40.1 °F 30 in WNW 2.9 mph 4 mph 96% 0.02 in 0 W/m2
20:39 41.2 °F 40.1 °F 30 in WNW 4 mph 6 mph 96% 0.02 in 0 W/m2
20:44 41.2 °F 40.1 °F 30 in West 2.9 mph 4 mph 96% 0.02 in 0 W/m2
20:49 41.2 °F 40.1 °F 30 in West 2 mph 7 mph 96% 0.02 in 0 W/m2
20:54 41.2 °F 40.1 °F 30 in NW 2.9 mph 5 mph 96% 0.02 in 0 W/m2
20:59 41.2 °F 40.1 °F 30 in West 2.9 mph 7 mph 96% 0.02 in 0 W/m2
21:04 41.2 °F 40.1 °F 30 in West 0.9 mph 8 mph 96% 0.02 in 0 W/m2
21:14 41.2 °F 40.1 °F 30 in WNW 2 mph 8 mph 96% 0.02 in 0 W/m2
21:19 41.4 °F 40.3 °F 30 in West 2.9 mph 7 mph 96% 0.02 in 0 W/m2
21:24 41.4 °F 40.3 °F 30 in WNW 2 mph 8 mph 96% 0.02 in 0 W/m2
21:29 41.2 °F 40.1 °F 30 in WNW 2 mph 5 mph 96% 0.02 in 0 W/m2
21:34 41.2 °F 40.1 °F 30 in WSW 2 mph 7 mph 96% 0.02 in 0 W/m2
21:39 41.4 °F 40.3 °F 30 in West 4 mph 7 mph 96% 0.03 in 0 W/m2
21:44 41.4 °F 40.3 °F 30 in WSW 2 mph 6 mph 96% 0.02 in 0 W/m2
21:49 41.4 °F 40.3 °F 30 in WNW 2.9 mph 5 mph 96% 0.02 in 0 W/m2
21:54 41.5 °F 40.5 °F 30 in NW 8.9 mph 10 mph 96% 0.03 in 0 W/m2
21:59 41.5 °F 40.5 °F 30 in WNW 2.9 mph 7 mph 96% 0.03 in 0 W/m2
22:04 41.5 °F 40.5 °F 30 in NW 4 mph 10 mph 96% 0.03 in 0 W/m2
22:09 41.5 °F 40.5 °F 30 in WNW 2.9 mph 8 mph 96% 0.02 in 0 W/m2
22:14 41.7 °F 40.6 °F 30 in West 2 mph 6 mph 96% 0.02 in 0 W/m2
22:19 41.7 °F 40.6 °F 30 in WNW 6 mph 6 mph 96% 0.03 in 0 W/m2
22:24 41.7 °F 40.5 °F 30 in West 0.9 mph 4 mph 95% 0.03 in 0 W/m2
22:29 41.7 °F 40.5 °F 30 in West 2 mph 4 mph 95% 0.02 in 0 W/m2
22:34 41.7 °F 40.5 °F 30 in WNW 2 mph 4 mph 95% 0.02 in 0 W/m2
22:39 41.7 °F 40.5 °F 30 in NW 2 mph 4 mph 95% 0.02 in 0 W/m2
22:44 41.7 °F 40.5 °F 30 in NW 2 mph 3 mph 95% 0.02 in 0 W/m2
22:49 41.7 °F 40.5 °F 30 in WNW 0.9 mph 3 mph 95% 0.02 in 0 W/m2
22:54 41.7 °F 40.5 °F 30 in WNW 2 mph 2 mph 95% 0.02 in 0 W/m2
22:59 41.5 °F 40.3 °F 30 in West 2 mph 3 mph 95% 0.02 in 0 W/m2
23:04 41.5 °F 40.3 °F 30 in WNW 2 mph 3 mph 95% 0.02 in 0 W/m2
23:09 41.5 °F 40.3 °F 30 in WSW 2.9 mph 4 mph 95% 0.02 in 0 W/m2
23:14 41.5 °F 40.3 °F 30 in WSW 2 mph 4 mph 95% 0.02 in 0 W/m2
23:19 41.5 °F 40.3 °F 30 in NW 2.9 mph 4 mph 95% 0.02 in 0 W/m2
23:24 41.5 °F 40.3 °F 30 in West 2.9 mph 4 mph 95% 0.02 in 0 W/m2
23:29 41.5 °F 40.3 °F 30 in West 2 mph 6 mph 95% 0.02 in 0 W/m2
23:34 41.5 °F 40.3 °F 30 in NW 2.9 mph 7 mph 95% 0.02 in 0 W/m2
23:39 41.5 °F 40.3 °F 30 in WSW 2 mph 4 mph 95% 0.02 in 0 W/m2
23:44 41.5 °F 40.3 °F 30 in WNW 2 mph 7 mph 95% 0.02 in 0 W/m2
23:49 41.4 °F 40.1 °F 30 in WNW 4.9 mph 7 mph 95% 0.02 in 0 W/m2
23:54 41.4 °F 40.1 °F 30 in West 2.9 mph 4 mph 95% 0.02 in 0 W/m2
23:59 41.4 °F 40.1 °F 30 in West 2 mph 4 mph 95% 0.02 in 0 W/m2
Juneau County Weather
Compliments of Weather Underground - 4 mb